Cherry Hills Village, Colorado
Current Conditions -  °F | °C
As of 12:53 PM on Monday 26 Jan 2015 (Local Time) from KAPA Reporting Station
Clear Clear  
Wind Chill: 68°   Ceiling: Unl
Heat Index: 68°   Visibility: 10mi
Dew Point: 18°   Wind: 7mph
Humidity: 15%   Direction: 30°NNE
Pressure: 30.26"   Gusts: NA
Location:  39.6158°N, 104.874°W
Report Text: KAPA 261953Z 03006KT 10SM CLR 20/M08 A3026 RMK AO2 SLP222 T02001078
Loading
Personal Weather Stations






























Interactive Weather Map New forecast layout! Learn more

10-Day Weather Forecast

Advertisements
Track Severe Weather on mobile